sensor_id;sensor_type;location;lat;lon;timestamp;P1;durP1;ratioP1;P2;durP2;ratioP2
3427;SDS011;1727;42.624;23.406;2022-12-07T00:01:24;38.87;;;25.07;;
3427;SDS011;1727;42.624;23.406;2022-12-07T00:03:53;44.97;;;26.40;;
3427;SDS011;1727;42.624;23.406;2022-12-07T00:06:22;41.87;;;26.30;;
3427;SDS011;1727;42.624;23.406;2022-12-07T00:08:49;38.27;;;25.17;;
3427;SDS011;1727;42.624;23.406;2022-12-07T00:11:16;51.90;;;26.60;;
3427;SDS011;1727;42.624;23.406;2022-12-07T00:13:44;52.23;;;30.37;;
3427;SDS011;1727;42.624;23.406;2022-12-07T00:16:13;53.47;;;35.00;;
3427;SDS011;1727;42.624;23.406;2022-12-07T00:18:42;57.60;;;32.67;;
3427;SDS011;1727;42.624;23.406;2022-12-07T00:21:10;44.90;;;29.87;;
3427;SDS011;1727;42.624;23.406;2022-12-07T00:23:39;50.30;;;28.43;;
3427;SDS011;1727;42.624;23.406;2022-12-07T00:26:06;54.80;;;30.97;;
3427;SDS011;1727;42.624;23.406;2022-12-07T00:28:35;43.10;;;26.87;;
3427;SDS011;1727;42.624;23.406;2022-12-07T00:31:03;50.67;;;29.83;;
3427;SDS011;1727;42.624;23.406;2022-12-07T00:33:31;57.23;;;30.87;;
3427;SDS011;1727;42.624;23.406;2022-12-07T00:36:00;44.50;;;28.60;;
3427;SDS011;1727;42.624;23.406;2022-12-07T00:38:28;42.07;;;25.77;;
3427;SDS011;1727;42.624;23.406;2022-12-07T00:40:56;46.83;;;26.70;;
3427;SDS011;1727;42.624;23.406;2022-12-07T00:43:23;49.43;;;27.93;;
3427;SDS011;1727;42.624;23.406;2022-12-07T00:45:50;61.37;;;41.00;;
3427;SDS011;1727;42.624;23.406;2022-12-07T00:48:18;75.57;;;48.17;;
3427;SDS011;1727;42.624;23.406;2022-12-07T00:50:44;94.57;;;49.87;;
3427;SDS011;1727;42.624;23.406;2022-12-07T00:53:13;92.50;;;52.30;;
3427;SDS011;1727;42.624;23.406;2022-12-07T00:55:40;87.20;;;46.90;;
3427;SDS011;1727;42.624;23.406;2022-12-07T00:58:07;86.10;;;43.80;;
3427;SDS011;1727;42.624;23.406;2022-12-07T01:00:35;85.00;;;47.47;;
3427;SDS011;1727;42.624;23.406;2022-12-07T01:03:03;83.03;;;43.70;;
3427;SDS011;1727;42.624;23.406;2022-12-07T01:05:30;84.13;;;41.47;;
3427;SDS011;1727;42.624;23.406;2022-12-07T01:07:57;79.57;;;41.77;;
3427;SDS011;1727;42.624;23.406;2022-12-07T01:10:25;73.93;;;40.70;;
3427;SDS011;1727;42.624;23.406;2022-12-07T01:12:52;74.43;;;42.40;;
3427;SDS011;1727;42.624;23.406;2022-12-07T01:15:19;82.60;;;42.80;;
3427;SDS011;1727;42.624;23.406;2022-12-07T01:17:46;63.60;;;40.40;;
3427;SDS011;1727;42.624;23.406;2022-12-07T01:20:13;56.97;;;38.43;;
3427;SDS011;1727;42.624;23.406;2022-12-07T01:22:41;63.40;;;32.50;;
3427;SDS011;1727;42.624;23.406;2022-12-07T01:25:09;54.20;;;31.83;;
3427;SDS011;1727;42.624;23.406;2022-12-07T01:27:39;61.50;;;34.67;;
3427;SDS011;1727;42.624;23.406;2022-12-07T01:30:06;60.30;;;31.80;;
3427;SDS011;1727;42.624;23.406;2022-12-07T01:32:34;52.57;;;30.07;;
3427;SDS011;1727;42.624;23.406;2022-12-07T01:35:00;48.20;;;28.03;;
3427;SDS011;1727;42.624;23.406;2022-12-07T01:37:33;40.67;;;27.67;;
3427;SDS011;1727;42.624;23.406;2022-12-07T01:40:01;46.37;;;30.27;;
3427;SDS011;1727;42.624;23.406;2022-12-07T01:42:28;49.33;;;30.20;;
3427;SDS011;1727;42.624;23.406;2022-12-07T01:48:08;43.00;;;27.73;;
3427;SDS011;1727;42.624;23.406;2022-12-07T01:50:38;47.23;;;27.70;;
3427;SDS011;1727;42.624;23.406;2022-12-07T01:53:06;45.57;;;23.87;;
3427;SDS011;1727;42.624;23.406;2022-12-07T01:55:37;45.53;;;28.53;;
3427;SDS011;1727;42.624;23.406;2022-12-07T01:58:07;50.23;;;25.40;;
3427;SDS011;1727;42.624;23.406;2022-12-07T02:00:35;48.77;;;26.60;;
3427;SDS011;1727;42.624;23.406;2022-12-07T02:03:03;52.07;;;32.77;;
3427;SDS011;1727;42.624;23.406;2022-12-07T02:05:34;56.27;;;33.10;;
3427;SDS011;1727;42.624;23.406;2022-12-07T02:08:04;60.33;;;35.73;;
3427;SDS011;1727;42.624;23.406;2022-12-07T02:10:31;56.47;;;34.73;;
3427;SDS011;1727;42.624;23.406;2022-12-07T02:12:59;58.97;;;29.27;;
3427;SDS011;1727;42.624;23.406;2022-12-07T02:15:33;43.20;;;25.40;;
3427;SDS011;1727;42.624;23.406;2022-12-07T02:18:09;34.10;;;22.27;;
3427;SDS011;1727;42.624;23.406;2022-12-07T02:20:44;40.00;;;22.67;;
3427;SDS011;1727;42.624;23.406;2022-12-07T02:23:24;37.70;;;23.90;;
3427;SDS011;1727;42.624;23.406;2022-12-07T02:29:11;41.37;;;23.30;;
3427;SDS011;1727;42.624;23.406;2022-12-07T02:31:45;45.47;;;25.10;;
3427;SDS011;1727;42.624;23.406;2022-12-07T02:34:21;38.73;;;26.37;;
3427;SDS011;1727;42.624;23.406;2022-12-07T02:36:57;44.47;;;25.73;;
3427;SDS011;1727;42.624;23.406;2022-12-07T02:39:32;48.67;;;28.00;;
3427;SDS011;1727;42.624;23.406;2022-12-07T02:42:09;36.70;;;25.60;;
3427;SDS011;1727;42.624;23.406;2022-12-07T02:44:42;41.23;;;25.20;;
3427;SDS011;1727;42.624;23.406;2022-12-07T02:47:10;37.60;;;24.63;;
3427;SDS011;1727;42.624;23.406;2022-12-07T02:49:40;49.53;;;25.60;;
3427;SDS011;1727;42.624;23.406;2022-12-07T02:52:08;45.37;;;25.87;;
3427;SDS011;1727;42.624;23.406;2022-12-07T02:54:35;42.20;;;26.47;;
3427;SDS011;1727;42.624;23.406;2022-12-07T02:57:03;43.80;;;24.60;;
3427;SDS011;1727;42.624;23.406;2022-12-07T02:59:45;40.93;;;26.90;;
3427;SDS011;1727;42.624;23.406;2022-12-07T03:02:25;46.67;;;26.67;;
3427;SDS011;1727;42.624;23.406;2022-12-07T03:05:04;47.13;;;28.63;;
3427;SDS011;1727;42.624;23.406;2022-12-07T03:07:40;55.50;;;30.20;;
3427;SDS011;1727;42.624;23.406;2022-12-07T03:10:17;42.37;;;27.47;;
3427;SDS011;1727;42.624;23.406;2022-12-07T03:12:51;43.63;;;30.67;;
3427;SDS011;1727;42.624;23.406;2022-12-07T03:15:29;54.57;;;29.27;;
3427;SDS011;1727;42.624;23.406;2022-12-07T03:18:00;43.80;;;27.30;;
3427;SDS011;1727;42.624;23.406;2022-12-07T03:20:29;43.43;;;27.53;;
3427;SDS011;1727;42.624;23.406;2022-12-07T03:22:59;49.97;;;28.73;;
3427;SDS011;1727;42.624;23.406;2022-12-07T03:25:26;49.00;;;28.77;;
3427;SDS011;1727;42.624;23.406;2022-12-07T03:27:55;51.00;;;27.90;;
3427;SDS011;1727;42.624;23.406;2022-12-07T03:30:29;48.13;;;27.60;;
3427;SDS011;1727;42.624;23.406;2022-12-07T03:33:03;43.97;;;26.43;;
3427;SDS011;1727;42.624;23.406;2022-12-07T03:35:34;44.70;;;27.30;;
3427;SDS011;1727;42.624;23.406;2022-12-07T03:38:08;51.37;;;28.80;;
3427;SDS011;1727;42.624;23.406;2022-12-07T03:40:45;56.40;;;37.50;;
3427;SDS011;1727;42.624;23.406;2022-12-07T03:43:16;70.73;;;41.30;;
3427;SDS011;1727;42.624;23.406;2022-12-07T03:45:48;79.73;;;43.40;;
3427;SDS011;1727;42.624;23.406;2022-12-07T03:48:24;66.20;;;38.50;;
3427;SDS011;1727;42.624;23.406;2022-12-07T03:50:55;64.10;;;39.00;;
3427;SDS011;1727;42.624;23.406;2022-12-07T03:53:31;50.10;;;28.20;;
3427;SDS011;1727;42.624;23.406;2022-12-07T03:56:04;49.13;;;27.27;;
3427;SDS011;1727;42.624;23.406;2022-12-07T03:58:33;50.47;;;27.33;;
3427;SDS011;1727;42.624;23.406;2022-12-07T04:01:02;41.93;;;24.90;;
3427;SDS011;1727;42.624;23.406;2022-12-07T04:03:29;40.33;;;21.93;;
3427;SDS011;1727;42.624;23.406;2022-12-07T04:05:55;42.10;;;24.37;;
3427;SDS011;1727;42.624;23.406;2022-12-07T04:08:23;40.77;;;22.50;;
3427;SDS011;1727;42.624;23.406;2022-12-07T04:10:50;40.13;;;24.57;;
3427;SDS011;1727;42.624;23.406;2022-12-07T04:13:17;37.23;;;23.60;;
3427;SDS011;1727;42.624;23.406;2022-12-07T04:15:44;42.50;;;26.63;;
3427;SDS011;1727;42.624;23.406;2022-12-07T04:18:12;42.80;;;24.00;;
3427;SDS011;1727;42.624;23.406;2022-12-07T04:20:39;43.67;;;26.17;;
3427;SDS011;1727;42.624;23.406;2022-12-07T04:23:06;40.90;;;23.70;;
3427;SDS011;1727;42.624;23.406;2022-12-07T04:25:33;41.23;;;23.47;;
3427;SDS011;1727;42.624;23.406;2022-12-07T04:27:59;35.40;;;23.80;;
3427;SDS011;1727;42.624;23.406;2022-12-07T04:30:26;38.70;;;23.23;;
3427;SDS011;1727;42.624;23.406;2022-12-07T04:32:53;39.07;;;23.50;;
3427;SDS011;1727;42.624;23.406;2022-12-07T04:35:21;38.03;;;23.77;;
3427;SDS011;1727;42.624;23.406;2022-12-07T04:37:48;36.83;;;24.57;;
3427;SDS011;1727;42.624;23.406;2022-12-07T04:40:15;42.73;;;25.90;;
3427;SDS011;1727;42.624;23.406;2022-12-07T04:42:42;36.57;;;24.40;;
3427;SDS011;1727;42.624;23.406;2022-12-07T04:45:09;42.93;;;27.93;;
3427;SDS011;1727;42.624;23.406;2022-12-07T04:47:36;49.47;;;29.63;;
3427;SDS011;1727;42.624;23.406;2022-12-07T04:50:03;40.67;;;27.17;;
3427;SDS011;1727;42.624;23.406;2022-12-07T04:52:32;44.47;;;28.00;;
3427;SDS011;1727;42.624;23.406;2022-12-07T04:54:59;47.77;;;32.57;;
3427;SDS011;1727;42.624;23.406;2022-12-07T04:57:25;57.77;;;37.67;;
3427;SDS011;1727;42.624;23.406;2022-12-07T04:59:52;60.37;;;39.33;;
3427;SDS011;1727;42.624;23.406;2022-12-07T05:02:19;67.43;;;39.37;;
3427;SDS011;1727;42.624;23.406;2022-12-07T05:04:46;72.93;;;41.20;;
3427;SDS011;1727;42.624;23.406;2022-12-07T05:07:15;58.00;;;36.90;;
3427;SDS011;1727;42.624;23.406;2022-12-07T05:09:45;61.60;;;34.70;;
3427;SDS011;1727;42.624;23.406;2022-12-07T05:12:11;63.77;;;32.90;;
3427;SDS011;1727;42.624;23.406;2022-12-07T05:14:38;52.83;;;31.20;;
3427;SDS011;1727;42.624;23.406;2022-12-07T05:17:06;42.63;;;27.07;;
3427;SDS011;1727;42.624;23.406;2022-12-07T05:19:33;44.10;;;25.37;;
3427;SDS011;1727;42.624;23.406;2022-12-07T05:22:00;40.60;;;25.30;;
3427;SDS011;1727;42.624;23.406;2022-12-07T05:24:26;49.50;;;27.43;;
3427;SDS011;1727;42.624;23.406;2022-12-07T05:26:55;47.27;;;28.57;;
3427;SDS011;1727;42.624;23.406;2022-12-07T05:29:21;40.93;;;25.80;;
3427;SDS011;1727;42.624;23.406;2022-12-07T05:31:48;45.83;;;27.37;;
3427;SDS011;1727;42.624;23.406;2022-12-07T05:34:15;49.10;;;27.90;;
3427;SDS011;1727;42.624;23.406;2022-12-07T05:36:42;48.63;;;27.80;;
3427;SDS011;1727;42.624;23.406;2022-12-07T05:39:09;43.70;;;28.07;;
3427;SDS011;1727;42.624;23.406;2022-12-07T05:41:36;51.27;;;27.70;;
3427;SDS011;1727;42.624;23.406;2022-12-07T05:44:22;39.03;;;27.20;;
3427;SDS011;1727;42.624;23.406;2022-12-07T05:46:49;47.33;;;27.23;;
3427;SDS011;1727;42.624;23.406;2022-12-07T05:49:16;56.23;;;30.00;;
3427;SDS011;1727;42.624;23.406;2022-12-07T05:51:43;66.20;;;32.27;;
3427;SDS011;1727;42.624;23.406;2022-12-07T05:54:10;59.80;;;28.77;;
3427;SDS011;1727;42.624;23.406;2022-12-07T05:56:37;54.53;;;33.60;;
3427;SDS011;1727;42.624;23.406;2022-12-07T05:59:03;51.97;;;29.77;;
3427;SDS011;1727;42.624;23.406;2022-12-07T06:01:54;61.30;;;32.67;;
3427;SDS011;1727;42.624;23.406;2022-12-07T06:04:22;68.30;;;37.30;;
3427;SDS011;1727;42.624;23.406;2022-12-07T06:06:50;64.20;;;36.90;;
3427;SDS011;1727;42.624;23.406;2022-12-07T06:09:18;66.60;;;37.70;;
3427;SDS011;1727;42.624;23.406;2022-12-07T06:11:45;68.90;;;40.10;;
3427;SDS011;1727;42.624;23.406;2022-12-07T06:14:30;60.60;;;35.33;;
3427;SDS011;1727;42.624;23.406;2022-12-07T06:16:59;52.47;;;35.20;;
3427;SDS011;1727;42.624;23.406;2022-12-07T06:19:26;55.17;;;33.67;;
3427;SDS011;1727;42.624;23.406;2022-12-07T06:21:53;54.70;;;35.73;;
3427;SDS011;1727;42.624;23.406;2022-12-07T06:24:21;58.53;;;35.37;;
3427;SDS011;1727;42.624;23.406;2022-12-07T06:26:47;53.60;;;33.37;;
3427;SDS011;1727;42.624;23.406;2022-12-07T06:29:14;59.50;;;32.57;;
3427;SDS011;1727;42.624;23.406;2022-12-07T06:31:42;68.73;;;31.97;;
3427;SDS011;1727;42.624;23.406;2022-12-07T06:34:11;55.17;;;31.47;;
3427;SDS011;1727;42.624;23.406;2022-12-07T06:36:41;65.30;;;34.47;;
3427;SDS011;1727;42.624;23.406;2022-12-07T06:39:08;90.47;;;44.13;;
3427;SDS011;1727;42.624;23.406;2022-12-07T06:41:35;79.23;;;41.57;;
3427;SDS011;1727;42.624;23.406;2022-12-07T06:44:03;102.00;;;40.90;;
3427;SDS011;1727;42.624;23.406;2022-12-07T06:46:30;76.20;;;39.73;;
3427;SDS011;1727;42.624;23.406;2022-12-07T06:48:57;86.00;;;36.47;;
3427;SDS011;1727;42.624;23.406;2022-12-07T06:51:25;54.47;;;30.00;;
3427;SDS011;1727;42.624;23.406;2022-12-07T06:53:52;63.57;;;31.50;;
3427;SDS011;1727;42.624;23.406;2022-12-07T06:56:19;64.67;;;27.87;;
3427;SDS011;1727;42.624;23.406;2022-12-07T06:58:46;56.73;;;27.20;;
3427;SDS011;1727;42.624;23.406;2022-12-07T07:01:13;48.57;;;28.40;;
3427;SDS011;1727;42.624;23.406;2022-12-07T07:03:41;58.43;;;28.77;;
3427;SDS011;1727;42.624;23.406;2022-12-07T07:06:08;51.30;;;30.17;;
3427;SDS011;1727;42.624;23.406;2022-12-07T07:08:37;50.10;;;30.20;;
3427;SDS011;1727;42.624;23.406;2022-12-07T07:11:05;61.23;;;29.70;;
3427;SDS011;1727;42.624;23.406;2022-12-07T07:13:33;43.83;;;26.63;;
3427;SDS011;1727;42.624;23.406;2022-12-07T07:16:00;48.83;;;25.93;;
3427;SDS011;1727;42.624;23.406;2022-12-07T07:18:27;38.43;;;25.10;;
3427;SDS011;1727;42.624;23.406;2022-12-07T07:20:54;51.43;;;27.87;;
3427;SDS011;1727;42.624;23.406;2022-12-07T07:23:21;54.10;;;31.50;;
3427;SDS011;1727;42.624;23.406;2022-12-07T07:25:50;50.37;;;30.33;;
3427;SDS011;1727;42.624;23.406;2022-12-07T07:28:17;52.67;;;31.50;;
3427;SDS011;1727;42.624;23.406;2022-12-07T07:30:44;62.20;;;33.43;;
3427;SDS011;1727;42.624;23.406;2022-12-07T07:33:11;67.43;;;36.50;;
3427;SDS011;1727;42.624;23.406;2022-12-07T07:35:38;66.90;;;37.10;;
3427;SDS011;1727;42.624;23.406;2022-12-07T07:38:05;53.37;;;35.97;;
3427;SDS011;1727;42.624;23.406;2022-12-07T07:40:32;55.17;;;34.53;;
3427;SDS011;1727;42.624;23.406;2022-12-07T07:43:01;64.33;;;37.80;;
3427;SDS011;1727;42.624;23.406;2022-12-07T07:45:28;53.77;;;29.27;;
3427;SDS011;1727;42.624;23.406;2022-12-07T07:47:55;57.60;;;33.27;;
3427;SDS011;1727;42.624;23.406;2022-12-07T07:50:21;73.80;;;38.23;;
3427;SDS011;1727;42.624;23.406;2022-12-07T07:52:48;67.50;;;35.03;;
3427;SDS011;1727;42.624;23.406;2022-12-07T07:55:15;58.70;;;32.03;;
3427;SDS011;1727;42.624;23.406;2022-12-07T07:57:42;58.67;;;34.50;;
3427;SDS011;1727;42.624;23.406;2022-12-07T08:00:12;54.80;;;30.97;;
3427;SDS011;1727;42.624;23.406;2022-12-07T08:02:41;43.10;;;26.47;;
3427;SDS011;1727;42.624;23.406;2022-12-07T08:05:09;46.03;;;26.57;;
3427;SDS011;1727;42.624;23.406;2022-12-07T08:07:36;37.60;;;23.63;;
3427;SDS011;1727;42.624;23.406;2022-12-07T08:10:04;44.33;;;25.70;;
3427;SDS011;1727;42.624;23.406;2022-12-07T08:12:35;45.43;;;25.83;;
3427;SDS011;1727;42.624;23.406;2022-12-07T08:15:02;44.60;;;26.63;;
3427;SDS011;1727;42.624;23.406;2022-12-07T08:17:31;62.37;;;31.23;;
3427;SDS011;1727;42.624;23.406;2022-12-07T08:19:59;46.37;;;25.53;;
3427;SDS011;1727;42.624;23.406;2022-12-07T08:22:26;41.60;;;26.00;;
3427;SDS011;1727;42.624;23.406;2022-12-07T08:24:52;46.73;;;26.27;;
3427;SDS011;1727;42.624;23.406;2022-12-07T08:27:19;50.07;;;26.03;;
3427;SDS011;1727;42.624;23.406;2022-12-07T08:29:48;39.03;;;25.23;;
3427;SDS011;1727;42.624;23.406;2022-12-07T08:32:15;46.77;;;26.83;;
3427;SDS011;1727;42.624;23.406;2022-12-07T08:34:43;35.10;;;24.97;;
3427;SDS011;1727;42.624;23.406;2022-12-07T08:37:10;47.37;;;27.00;;
3427;SDS011;1727;42.624;23.406;2022-12-07T08:39:37;50.93;;;25.70;;
3427;SDS011;1727;42.624;23.406;2022-12-07T08:42:04;47.53;;;26.67;;
3427;SDS011;1727;42.624;23.406;2022-12-07T08:44:31;54.87;;;27.80;;
3427;SDS011;1727;42.624;23.406;2022-12-07T08:46:58;52.47;;;28.37;;
3427;SDS011;1727;42.624;23.406;2022-12-07T08:49:30;47.27;;;27.70;;
3427;SDS011;1727;42.624;23.406;2022-12-07T08:52:03;46.43;;;27.43;;
3427;SDS011;1727;42.624;23.406;2022-12-07T08:54:31;44.27;;;25.80;;
3427;SDS011;1727;42.624;23.406;2022-12-07T08:57:01;49.20;;;25.47;;
3427;SDS011;1727;42.624;23.406;2022-12-07T08:59:28;38.27;;;24.80;;
3427;SDS011;1727;42.624;23.406;2022-12-07T09:01:55;52.30;;;28.90;;
3427;SDS011;1727;42.624;23.406;2022-12-07T09:04:22;44.90;;;27.00;;
3427;SDS011;1727;42.624;23.406;2022-12-07T09:06:49;47.10;;;28.13;;
3427;SDS011;1727;42.624;23.406;2022-12-07T09:09:17;40.63;;;25.50;;
3427;SDS011;1727;42.624;23.406;2022-12-07T09:11:44;43.43;;;25.27;;
3427;SDS011;1727;42.624;23.406;2022-12-07T09:14:11;44.00;;;25.23;;
3427;SDS011;1727;42.624;23.406;2022-12-07T09:16:38;54.13;;;26.77;;
3427;SDS011;1727;42.624;23.406;2022-12-07T09:19:08;46.00;;;27.73;;
3427;SDS011;1727;42.624;23.406;2022-12-07T09:21:34;44.17;;;27.00;;
3427;SDS011;1727;42.624;23.406;2022-12-07T09:24:01;47.07;;;27.90;;
3427;SDS011;1727;42.624;23.406;2022-12-07T09:26:30;58.83;;;27.00;;
3427;SDS011;1727;42.624;23.406;2022-12-07T09:28:56;42.07;;;25.77;;
3427;SDS011;1727;42.624;23.406;2022-12-07T09:31:23;49.43;;;27.07;;
3427;SDS011;1727;42.624;23.406;2022-12-07T09:33:52;44.00;;;26.70;;
3427;SDS011;1727;42.624;23.406;2022-12-07T09:36:20;47.50;;;25.93;;
3427;SDS011;1727;42.624;23.406;2022-12-07T09:38:47;49.60;;;28.00;;
3427;SDS011;1727;42.624;23.406;2022-12-07T09:41:13;47.30;;;25.13;;
3427;SDS011;1727;42.624;23.406;2022-12-07T09:43:42;46.37;;;26.70;;
3427;SDS011;1727;42.624;23.406;2022-12-07T09:46:11;44.53;;;25.57;;
3427;SDS011;1727;42.624;23.406;2022-12-07T09:48:41;42.03;;;24.30;;
3427;SDS011;1727;42.624;23.406;2022-12-07T09:51:13;45.77;;;26.37;;
3427;SDS011;1727;42.624;23.406;2022-12-07T09:53:41;45.87;;;26.40;;
3427;SDS011;1727;42.624;23.406;2022-12-07T09:56:09;46.90;;;25.50;;
3427;SDS011;1727;42.624;23.406;2022-12-07T09:58:38;48.60;;;26.10;;
3427;SDS011;1727;42.624;23.406;2022-12-07T10:01:09;55.47;;;26.83;;
3427;SDS011;1727;42.624;23.406;2022-12-07T10:03:48;51.30;;;29.33;;
3427;SDS011;1727;42.624;23.406;2022-12-07T10:06:17;51.03;;;26.43;;
3427;SDS011;1727;42.624;23.406;2022-12-07T10:08:45;48.23;;;27.60;;
3427;SDS011;1727;42.624;23.406;2022-12-07T10:11:11;47.10;;;27.93;;
3427;SDS011;1727;42.624;23.406;2022-12-07T10:13:40;46.13;;;26.10;;
3427;SDS011;1727;42.624;23.406;2022-12-07T10:16:25;44.60;;;27.03;;
3427;SDS011;1727;42.624;23.406;2022-12-07T10:18:59;43.50;;;26.47;;
3427;SDS011;1727;42.624;23.406;2022-12-07T13:46:17;42.37;;;21.33;;
3427;SDS011;1727;42.624;23.406;2022-12-07T13:48:47;42.70;;;20.77;;
3427;SDS011;1727;42.624;23.406;2022-12-07T13:51:17;29.77;;;18.60;;
3427;SDS011;1727;42.624;23.406;2022-12-07T13:53:48;26.17;;;17.93;;
3427;SDS011;1727;42.624;23.406;2022-12-07T13:56:16;34.10;;;18.40;;
3427;SDS011;1727;42.624;23.406;2022-12-07T13:58:47;26.10;;;17.77;;
3427;SDS011;1727;42.624;23.406;2022-12-07T14:01:14;31.77;;;17.90;;
3427;SDS011;1727;42.624;23.406;2022-12-07T14:03:42;36.90;;;18.67;;
3427;SDS011;1727;42.624;23.406;2022-12-07T14:06:14;38.33;;;17.77;;
3427;SDS011;1727;42.624;23.406;2022-12-07T14:08:43;44.10;;;26.80;;
3427;SDS011;1727;42.624;23.406;2022-12-07T14:11:12;38.40;;;25.43;;
3427;SDS011;1727;42.624;23.406;2022-12-07T14:13:44;41.70;;;26.70;;
3427;SDS011;1727;42.624;23.406;2022-12-07T14:16:21;46.60;;;24.93;;
3427;SDS011;1727;42.624;23.406;2022-12-07T14:18:52;45.17;;;28.33;;
3427;SDS011;1727;42.624;23.406;2022-12-07T14:21:20;45.33;;;29.27;;
3427;SDS011;1727;42.624;23.406;2022-12-07T14:24:02;53.60;;;28.60;;
3427;SDS011;1727;42.624;23.406;2022-12-07T14:26:41;43.97;;;27.73;;
3427;SDS011;1727;42.624;23.406;2022-12-07T14:32:12;47.17;;;27.80;;
3427;SDS011;1727;42.624;23.406;2022-12-07T14:34:56;57.40;;;29.70;;
3427;SDS011;1727;42.624;23.406;2022-12-07T14:37:27;57.90;;;25.87;;
3427;SDS011;1727;42.624;23.406;2022-12-07T14:39:56;50.63;;;30.27;;
3427;SDS011;1727;42.624;23.406;2022-12-07T14:42:23;49.03;;;28.40;;
3427;SDS011;1727;42.624;23.406;2022-12-07T14:44:53;48.63;;;29.20;;
3427;SDS011;1727;42.624;23.406;2022-12-07T14:47:20;55.80;;;27.60;;
3427;SDS011;1727;42.624;23.406;2022-12-07T14:49:47;54.50;;;26.80;;
3427;SDS011;1727;42.624;23.406;2022-12-07T14:52:16;74.37;;;27.00;;
3427;SDS011;1727;42.624;23.406;2022-12-07T14:54:45;46.37;;;25.90;;
3427;SDS011;1727;42.624;23.406;2022-12-07T14:57:12;61.80;;;33.40;;
3427;SDS011;1727;42.624;23.406;2022-12-07T14:59:39;65.50;;;34.53;;
3427;SDS011;1727;42.624;23.406;2022-12-07T15:02:06;61.73;;;33.07;;
3427;SDS011;1727;42.624;23.406;2022-12-07T15:04:35;73.53;;;33.47;;
3427;SDS011;1727;42.624;23.406;2022-12-07T15:07:04;57.13;;;28.60;;
3427;SDS011;1727;42.624;23.406;2022-12-07T15:09:36;54.90;;;28.20;;
3427;SDS011;1727;42.624;23.406;2022-12-07T15:12:03;54.03;;;28.57;;
3427;SDS011;1727;42.624;23.406;2022-12-07T15:14:31;52.43;;;27.37;;
3427;SDS011;1727;42.624;23.406;2022-12-07T15:16:57;60.80;;;27.93;;
3427;SDS011;1727;42.624;23.406;2022-12-07T15:19:24;57.40;;;29.83;;
3427;SDS011;1727;42.624;23.406;2022-12-07T15:21:52;45.77;;;25.07;;
3427;SDS011;1727;42.624;23.406;2022-12-07T15:24:19;62.23;;;26.30;;
3427;SDS011;1727;42.624;23.406;2022-12-07T15:26:48;57.37;;;30.03;;
3427;SDS011;1727;42.624;23.406;2022-12-07T15:29:14;50.50;;;29.40;;
3427;SDS011;1727;42.624;23.406;2022-12-07T15:31:42;54.83;;;27.80;;
3427;SDS011;1727;42.624;23.406;2022-12-07T15:34:10;47.40;;;29.13;;
3427;SDS011;1727;42.624;23.406;2022-12-07T15:36:37;50.40;;;29.80;;
3427;SDS011;1727;42.624;23.406;2022-12-07T15:39:04;50.30;;;27.33;;
3427;SDS011;1727;42.624;23.406;2022-12-07T15:41:31;52.23;;;24.83;;
3427;SDS011;1727;42.624;23.406;2022-12-07T15:43:59;58.33;;;30.10;;
3427;SDS011;1727;42.624;23.406;2022-12-07T15:46:43;67.70;;;28.00;;
3427;SDS011;1727;42.624;23.406;2022-12-07T15:49:11;59.73;;;29.23;;
3427;SDS011;1727;42.624;23.406;2022-12-07T15:51:40;50.93;;;29.07;;
3427;SDS011;1727;42.624;23.406;2022-12-07T15:54:08;112.63;;;58.70;;
3427;SDS011;1727;42.624;23.406;2022-12-07T15:56:39;141.00;;;72.60;;
3427;SDS011;1727;42.624;23.406;2022-12-07T15:59:07;79.43;;;47.37;;
3427;SDS011;1727;42.624;23.406;2022-12-07T16:01:34;63.77;;;37.30;;
3427;SDS011;1727;42.624;23.406;2022-12-07T16:04:01;56.90;;;30.83;;
3427;SDS011;1727;42.624;23.406;2022-12-07T16:06:28;54.37;;;30.00;;
3427;SDS011;1727;42.624;23.406;2022-12-07T16:08:55;56.30;;;30.23;;
3427;SDS011;1727;42.624;23.406;2022-12-07T16:11:21;53.50;;;30.60;;
3427;SDS011;1727;42.624;23.406;2022-12-07T16:13:48;64.00;;;32.83;;
3427;SDS011;1727;42.624;23.406;2022-12-07T16:16:17;71.13;;;42.30;;
3427;SDS011;1727;42.624;23.406;2022-12-07T16:18:47;67.67;;;37.50;;
3427;SDS011;1727;42.624;23.406;2022-12-07T16:21:14;58.47;;;32.50;;
3427;SDS011;1727;42.624;23.406;2022-12-07T16:23:43;61.90;;;37.13;;
3427;SDS011;1727;42.624;23.406;2022-12-07T16:26:13;52.63;;;34.10;;
3427;SDS011;1727;42.624;23.406;2022-12-07T16:28:42;55.70;;;32.73;;
3427;SDS011;1727;42.624;23.406;2022-12-07T16:31:10;58.70;;;33.27;;
3427;SDS011;1727;42.624;23.406;2022-12-07T16:33:40;61.53;;;35.90;;
3427;SDS011;1727;42.624;23.406;2022-12-07T16:36:09;60.57;;;35.37;;
3427;SDS011;1727;42.624;23.406;2022-12-07T16:38:37;62.43;;;33.07;;
3427;SDS011;1727;42.624;23.406;2022-12-07T16:41:04;49.73;;;30.50;;
3427;SDS011;1727;42.624;23.406;2022-12-07T16:43:31;55.40;;;32.33;;
3427;SDS011;1727;42.624;23.406;2022-12-07T16:45:58;62.43;;;31.93;;
3427;SDS011;1727;42.624;23.406;2022-12-07T16:48:25;64.17;;;33.80;;
3427;SDS011;1727;42.624;23.406;2022-12-07T16:50:54;51.40;;;29.83;;
3427;SDS011;1727;42.624;23.406;2022-12-07T16:53:21;47.67;;;33.40;;
3427;SDS011;1727;42.624;23.406;2022-12-07T16:55:49;74.93;;;42.17;;
3427;SDS011;1727;42.624;23.406;2022-12-07T16:58:17;83.53;;;42.73;;
3427;SDS011;1727;42.624;23.406;2022-12-07T17:00:44;81.13;;;41.27;;
3427;SDS011;1727;42.624;23.406;2022-12-07T17:03:12;40.97;;;24.47;;
3427;SDS011;1727;42.624;23.406;2022-12-07T17:05:39;51.97;;;28.13;;
3427;SDS011;1727;42.624;23.406;2022-12-07T17:08:08;50.10;;;30.35;;
3427;SDS011;1727;42.624;23.406;2022-12-07T17:10:36;46.37;;;26.47;;
3427;SDS011;1727;42.624;23.406;2022-12-07T17:13:04;41.73;;;25.40;;
3427;SDS011;1727;42.624;23.406;2022-12-07T17:15:56;46.93;;;30.07;;
3427;SDS011;1727;42.624;23.406;2022-12-07T17:18:23;53.50;;;29.07;;
3427;SDS011;1727;42.624;23.406;2022-12-07T17:20:49;57.57;;;30.40;;
3427;SDS011;1727;42.624;23.406;2022-12-07T17:23:18;77.23;;;33.07;;
3427;SDS011;1727;42.624;23.406;2022-12-07T17:25:45;57.10;;;33.00;;
3427;SDS011;1727;42.624;23.406;2022-12-07T17:28:11;68.10;;;33.07;;
3427;SDS011;1727;42.624;23.406;2022-12-07T17:30:38;112.13;;;59.43;;
3427;SDS011;1727;42.624;23.406;2022-12-07T17:33:05;97.07;;;57.08;;
3427;SDS011;1727;42.624;23.406;2022-12-07T17:35:32;109.70;;;52.77;;
3427;SDS011;1727;42.624;23.406;2022-12-07T17:38:00;96.63;;;50.30;;
3427;SDS011;1727;42.624;23.406;2022-12-07T17:40:29;85.17;;;49.23;;
3427;SDS011;1727;42.624;23.406;2022-12-07T17:42:55;93.70;;;47.70;;
3427;SDS011;1727;42.624;23.406;2022-12-07T17:45:22;101.53;;;52.83;;
3427;SDS011;1727;42.624;23.406;2022-12-07T17:47:49;92.83;;;49.27;;
3427;SDS011;1727;42.624;23.406;2022-12-07T17:50:16;89.93;;;45.87;;
3427;SDS011;1727;42.624;23.406;2022-12-07T17:53:04;109.37;;;54.67;;
3427;SDS011;1727;42.624;23.406;2022-12-07T17:55:37;158.03;;;77.93;;
3427;SDS011;1727;42.624;23.406;2022-12-07T17:58:04;165.93;;;84.17;;
3427;SDS011;1727;42.624;23.406;2022-12-07T18:00:31;179.57;;;90.83;;
3427;SDS011;1727;42.624;23.406;2022-12-07T18:03:02;191.53;;;101.43;;
3427;SDS011;1727;42.624;23.406;2022-12-07T18:05:33;163.57;;;91.40;;
3427;SDS011;1727;42.624;23.406;2022-12-07T18:08:01;181.40;;;93.77;;
3427;SDS011;1727;42.624;23.406;2022-12-07T18:10:28;177.90;;;97.07;;
3427;SDS011;1727;42.624;23.406;2022-12-07T18:12:56;186.20;;;91.80;;
3427;SDS011;1727;42.624;23.406;2022-12-07T18:15:37;172.67;;;94.93;;
3427;SDS011;1727;42.624;23.406;2022-12-07T18:18:04;120.07;;;56.50;;